KCPS/CPS METAR and TAF weather

Enter ICAO airport designator
Station Type Date Time Source
KCPS METAR 2021/03/04 23:53 UTC NOAA

KCPS 042353Z AUTO 08008KT 10SM CLR 12/02 A3019 RMK AO2 SLP224 T01170017 10172 20117 53006


Station Type Date Time Source
KCPS Decoded METAR 2021/03/04 23:53 UTC NOAA

ST LOUIS DOWNTOWN AIRPORT, IL, United States (KCPS) 38-34N 090-09W 126M
Mar 04, 2021 - 06:53 PM EST / 2021.03.04 2353 UTC
Wind: from the E (080 degrees) at 9 MPH (8 KT):0
Visibility: 10 mile(s):0
Sky conditions: clear
Temperature: 53.1 F (11.7 C)
Dew Point: 35.1 F (1.7 C)
Relative Humidity: 50%
Pressure (altimeter): 30.19 in. Hg (1022 hPa)
Pressure tendency: 0.02 inches (0.6 hPa) higher than three hours ago
ob: KCPS 042353Z AUTO 08008KT 10SM CLR 12/02 A3019 RMK AO2 SLP224 T01170017 10172 20117 53006
cycle: 0

Station Type Date Time Source
KCPS TAF 2021/03/04 18:24 UTC NOAA

TAF KCPS 041723Z 0418/0518 09009KT P6SM SKC
FM050600 06007KT P6SM SCT250

Example: see airport list